Campbellsville, Kentucky
Current Conditions -  °F | °C
As of 10:35 PM on Saturday 22 Nov 2014 (Local Time) from K6I2 Reporting Station
Overcast Overcast  
Wind Chill: 54°   Ceiling: 7500
Heat Index: 54°   Visibility: 10mi
Dew Point: 36°   Wind: 15mph
Humidity: 51%   Direction: 180°S
Pressure: 30.1"   Gusts: NA
Location:  37.34°N, 85.34°W
Report Text: K6I2 230335Z AUTO 18013KT 10SM BKN075 OVC110 12/02 A3010 RMK AO2
Loading
Personal Weather Stations






























Interactive Weather Map New forecast layout! Learn more

10-Day Weather Forecast

Advertisements
Track Severe Weather on mobile